Time;durP1;ratioP1;P1;durP2;ratioP2;P2;SDS_P1;SDS_P2;PMS_P1;PMS_P2;Temp;Humidity;BMP_temperature;BMP_pressure;BME280_temperature;BME280_humidity;BME280_pressure;Samples;Min_cycle;Max_cycle;Signal;HPM_P1;HPM_P2
2022/12/04 00:02:11;;;;;;;55.05;29.27;;;1.30;99.90;;;;;;4982384;28;20248;-69
2022/12/04 00:04:37;;;;;;;61.90;31.40;;;1.40;99.90;;;;;;4984603;28;20382;-69
2022/12/04 00:07:04;;;;;;;62.58;29.85;;;1.40;99.90;;;;;;4986190;28;20050;-69
2022/12/04 00:09:31;;;;;;;;;;;1.40;99.90;;;;;;4982610;28;20049;-69
2022/12/04 00:11:58;;;;;;;61.63;29.63;;;1.40;99.90;;;;;;4981381;28;20025;-69
2022/12/04 00:14:24;;;;;;;63.35;31.85;;;1.30;99.90;;;;;;4986702;28;20276;-69
2022/12/04 00:16:51;;;;;;;;;;;1.40;99.90;;;;;;4990727;28;20275;-70
2022/12/04 00:19:18;;;;;;;62.43;28.93;;;1.30;99.90;;;;;;4982830;28;19940;-68
2022/12/04 00:21:45;;;;;;;;;;;1.30;99.90;;;;;;4984059;28;20081;-69
2022/12/04 00:24:12;;;;;;;56.28;26.83;;;1.30;99.90;;;;;;4983002;28;20498;-68
2022/12/04 00:26:39;;;;;;;66.15;32.17;;;1.30;99.90;;;;;;4982436;28;20072;-68
2022/12/04 00:29:05;;;;;;;56.72;28.27;;;1.30;99.90;;;;;;4981899;28;20522;-68
2022/12/04 00:31:32;;;;;;;67.43;31.83;;;1.30;99.90;;;;;;4982329;28;20558;-68
2022/12/04 00:33:59;;;;;;;60.72;29.73;;;1.30;99.90;;;;;;4982319;28;20041;-68
2022/12/04 00:36:29;;;;;;;58.60;28.63;;;1.30;99.90;;;;;;4982939;28;20233;-68
2022/12/04 00:38:58;;;;;;;61.63;28.15;;;1.30;99.90;;;;;;4981882;28;20602;-68
2022/12/04 00:41:26;;;;;;;62.33;32.53;;;1.30;99.90;;;;;;4982958;28;20053;-68
2022/12/04 00:43:53;;;;;;;63.70;31.80;;;1.30;99.90;;;;;;4978448;28;20161;-68
2022/12/04 00:46:20;;;;;;;68.60;33.95;;;1.30;99.90;;;;;;4982187;28;20049;-68
2022/12/04 00:48:48;;;;;;;66.63;33.08;;;1.30;99.90;;;;;;4982847;28;20343;-68
2022/12/04 00:51:18;;;;;;;74.75;34.22;;;1.30;99.90;;;;;;4981109;28;20061;-68
2022/12/04 00:53:45;;;;;;;67.88;30.02;;;1.30;99.90;;;;;;4982702;28;20046;-68
2022/12/04 00:56:21;;;;;;;64.80;32.35;;;1.20;99.90;;;;;;4983196;28;20045;-68
2022/12/04 00:58:54;;;;;;;69.15;32.35;;;1.30;99.90;;;;;;4977385;28;20325;-68
2022/12/04 01:01:22;;;;;;;68.75;29.98;;;1.20;99.90;;;;;;4979462;28;20120;-70
2022/12/04 01:03:50;;;;;;;65.78;31.70;;;1.30;99.90;;;;;;4980724;28;20042;-70
2022/12/04 01:06:18;;;;;;;67.72;32.67;;;1.30;99.90;;;;;;4979545;28;20046;-67
2022/12/04 01:08:45;;;;;;;66.05;30.60;;;1.30;99.90;;;;;;4980479;28;20171;-70
2022/12/04 01:11:12;;;;;;;64.75;31.95;;;1.30;99.90;;;;;;4978743;28;20041;-69
2022/12/04 01:13:39;;;;;;;61.55;30.75;;;1.30;99.90;;;;;;4989779;28;20386;-70
2022/12/04 01:16:06;;;;;;;66.43;31.50;;;1.20;99.90;;;;;;4980366;28;20056;-69
2022/12/04 01:18:33;;;;;;;84.57;34.63;;;1.30;99.90;;;;;;4981737;28;20088;-69
2022/12/04 01:20:59;;;;;;;;;;;1.20;99.90;;;;;;4981367;28;20049;-68
2022/12/04 01:23:26;;;;;;;62.63;31.92;;;1.30;99.90;;;;;;4989780;28;20376;-69
2022/12/04 01:25:56;;;;;;;69.63;29.98;;;1.20;99.90;;;;;;4982886;28;20050;-69
2022/12/04 01:28:23;;;;;;;61.78;29.33;;;1.20;99.90;;;;;;4982020;28;20343;-69
2022/12/04 01:31:01;;;;;;;64.30;30.50;;;1.20;99.90;;;;;;4984572;28;20952;-68
2022/12/04 01:33:29;;;;;;;64.35;28.10;;;1.20;99.90;;;;;;4986129;28;20446;-68
2022/12/04 01:35:58;;;;;;;63.40;31.95;;;1.20;99.90;;;;;;4991928;28;20334;-68
2022/12/04 01:38:25;;;;;;;66.80;29.77;;;1.20;99.90;;;;;;4985100;28;20541;-68
2022/12/04 01:40:53;;;;;;;74.05;33.60;;;1.20;99.90;;;;;;4985213;28;20144;-67
2022/12/04 01:43:21;;;;;;;59.47;30.17;;;1.20;99.90;;;;;;4984452;28;20356;-68
2022/12/04 01:45:58;;;;;;;61.72;30.92;;;1.20;99.90;;;;;;4984250;28;20352;-69
2022/12/04 01:48:49;;;;;;;62.60;28.95;;;1.20;99.90;;;;;;4987554;28;20057;-68
2022/12/04 01:51:24;;;;;;;62.83;28.90;;;1.20;99.90;;;;;;4991100;28;20045;-68
2022/12/04 01:53:57;;;;;;;63.88;29.15;;;1.20;99.90;;;;;;4985274;28;20352;-69
2022/12/04 01:56:50;;;;;;;68.82;31.95;;;1.20;99.90;;;;;;4986056;28;20054;-68
2022/12/04 01:59:21;;;;;;;63.92;29.77;;;1.20;99.90;;;;;;4984616;28;20264;-70
2022/12/04 02:02:06;;;;;;;57.92;28.25;;;1.20;99.90;;;;;;4982007;28;20111;-67
2022/12/04 02:04:34;;;;;;;58.90;29.25;;;1.20;99.90;;;;;;4985741;28;20135;-70
2022/12/04 02:07:01;;;;;;;65.47;30.70;;;1.20;99.90;;;;;;4985917;28;20266;-70
2022/12/04 02:09:29;;;;;;;71.30;30.15;;;1.20;99.90;;;;;;4984824;28;20498;-69
2022/12/04 02:12:34;;;;;;;67.90;28.90;;;1.20;99.90;;;;;;4984635;28;20245;-69
2022/12/04 02:15:15;;;;;;;69.95;29.45;;;1.20;99.90;;;;;;4985395;28;20053;-69
2022/12/04 02:18:07;;;;;;;63.10;29.83;;;1.20;99.90;;;;;;4984756;28;20506;-69
2022/12/04 02:21:02;;;;;;;78.72;30.98;;;1.20;99.90;;;;;;4986962;28;20626;-70
2022/12/04 02:23:57;;;;;;;65.05;31.25;;;1.20;99.90;;;;;;4983361;28;20530;-69
2022/12/04 02:26:42;;;;;;;61.63;29.83;;;1.20;99.90;;;;;;4987265;28;20466;-70
2022/12/04 02:29:44;;;;;;;63.65;30.27;;;1.20;99.90;;;;;;4983359;28;20158;-69
2022/12/04 02:32:43;;;;;;;61.83;30.40;;;1.20;99.90;;;;;;4983005;28;20093;-70
2022/12/04 02:35:19;;;;;;;74.70;31.05;;;1.20;99.90;;;;;;4998967;28;20403;-69
2022/12/04 02:37:53;;;;;;;64.93;29.70;;;1.20;99.90;;;;;;4984161;28;20037;-69
2022/12/04 02:40:28;;;;;;;60.28;28.20;;;1.20;99.90;;;;;;4986393;28;20641;-69
2022/12/04 02:43:02;;;;;;;58.92;28.90;;;1.20;99.90;;;;;;4982282;28;20974;-70
2022/12/04 02:45:35;;;;;;;64.15;31.85;;;1.10;99.90;;;;;;4984195;28;20060;-69
2022/12/04 02:48:06;;;;;;;101.25;32.85;;;1.20;99.90;;;;;;4983203;28;20046;-69
2022/12/04 02:50:38;;;;;;;80.97;32.83;;;1.20;99.90;;;;;;4984022;28;20037;-69
2022/12/04 02:53:37;;;;;;;70.03;29.90;;;1.20;99.90;;;;;;4983110;28;20348;-69
2022/12/04 02:56:09;;;;;;;58.72;28.00;;;1.20;99.90;;;;;;4984853;28;20054;-69
2022/12/04 02:58:43;;;;;;;65.20;29.88;;;1.10;99.90;;;;;;4981463;28;20263;-69
2022/12/04 03:01:22;;;;;;;68.25;29.88;;;1.10;99.90;;;;;;4978761;28;20050;-69
2022/12/04 03:04:03;;;;;;;65.68;31.60;;;1.10;99.90;;;;;;4982972;28;20057;-67
2022/12/04 03:06:33;;;;;;;89.72;31.30;;;1.10;99.90;;;;;;4978988;28;20300;-68
2022/12/04 03:09:12;;;;;;;65.05;30.55;;;1.10;99.90;;;;;;4985082;28;20120;-67
2022/12/04 03:11:45;;;;;;;60.10;29.60;;;1.10;99.90;;;;;;4983296;28;20299;-68
2022/12/04 03:14:26;;;;;;;67.45;31.17;;;1.10;99.90;;;;;;4983080;28;20050;-68
2022/12/04 03:16:59;;;;;;;76.20;30.60;;;1.10;99.90;;;;;;4983480;28;20303;-67
2022/12/04 03:19:48;;;;;;;127.38;31.73;;;1.20;99.90;;;;;;4979668;28;20152;-68
2022/12/04 03:22:18;;;;;;;69.32;30.98;;;1.10;99.90;;;;;;4980744;28;20349;-68
2022/12/04 03:24:54;;;;;;;69.13;31.13;;;1.10;99.90;;;;;;4982381;28;20325;-67
2022/12/04 03:27:39;;;;;;;57.10;28.10;;;1.10;99.90;;;;;;4982775;28;20433;-67
2022/12/04 03:30:08;;;;;;;79.05;28.60;;;1.10;99.90;;;;;;4981881;28;20158;-68
2022/12/04 03:32:44;;;;;;;62.92;28.92;;;1.10;99.90;;;;;;4985273;28;20470;-68
2022/12/04 03:35:37;;;;;;;83.20;32.88;;;1.10;99.90;;;;;;4984270;28;20042;-67
2022/12/04 03:38:29;;;;;;;62.42;30.20;;;1.10;99.90;;;;;;4983549;28;20618;-68
2022/12/04 03:41:05;;;;;;;70.75;29.70;;;1.10;99.90;;;;;;4988550;28;20070;-68
2022/12/04 03:43:44;;;;;;;72.40;30.50;;;1.00;99.90;;;;;;4984583;28;20068;-68
2022/12/04 03:46:16;;;;;;;63.05;31.27;;;1.10;99.90;;;;;;4983847;28;20041;-68
2022/12/04 03:48:49;;;;;;;97.90;31.30;;;1.10;99.90;;;;;;4983958;28;20572;-67
2022/12/04 03:51:22;;;;;;;79.28;31.70;;;1.00;99.90;;;;;;4985876;28;20043;-68
2022/12/04 03:54:20;;;;;;;64.65;27.90;;;1.10;99.90;;;;;;4983809;28;20167;-68
2022/12/04 03:56:57;;;;;;;101.37;30.90;;;1.10;99.90;;;;;;4981794;28;20083;-67
2022/12/04 03:59:37;;;;;;;66.47;28.50;;;1.10;99.90;;;;;;4983102;28;20042;-67
2022/12/04 04:02:12;;;;;;;80.07;30.13;;;1.10;99.90;;;;;;4978681;28;20882;-67
2022/12/04 04:04:41;;;;;;;80.03;29.92;;;1.10;99.90;;;;;;4983600;28;20498;-68
2022/12/04 04:07:15;;;;;;;63.25;29.27;;;1.10;99.90;;;;;;4980312;28;20707;-68
2022/12/04 04:09:45;;;;;;;79.28;29.45;;;1.10;99.90;;;;;;4990691;28;20171;-68
2022/12/04 04:12:19;;;;;;;95.70;31.40;;;1.00;99.90;;;;;;4983488;28;20566;-69
2022/12/04 04:26:18;;;;;;;91.28;31.92;;;1.10;99.90;;;;;;4983699;28;20061;-67
2022/12/04 04:28:45;;;;;;;59.35;27.40;;;1.10;99.90;;;;;;4981435;28;20172;-67
2022/12/04 04:31:12;;;;;;;;;;;1.10;99.90;;;;;;4982703;28;20254;-68
2022/12/04 04:33:49;;;;;;;107.95;30.60;;;1.00;99.90;;;;;;4980783;28;20421;-68
2022/12/04 04:36:26;;;;;;;102.63;29.23;;;1.10;99.90;;;;;;4982483;28;20362;-67
2022/12/04 04:38:58;;;;;;;;;;;1.10;99.90;;;;;;4980583;28;20049;-68
2022/12/04 04:41:36;;;;;;;62.30;27.45;;;1.00;99.90;;;;;;4980537;28;20007;-68
2022/12/04 04:44:18;;;;;;;136.23;31.90;;;1.00;99.90;;;;;;4982427;28;20054;-68
2022/12/04 04:46:51;;;;;;;71.50;28.75;;;1.00;99.90;;;;;;4988182;28;20557;-67
2022/12/04 04:49:22;;;;;;;61.22;27.85;;;1.00;99.90;;;;;;4982382;28;20056;-67
2022/12/04 04:51:49;;;;;;;79.25;29.58;;;1.00;99.90;;;;;;4980888;28;20042;-68
2022/12/04 04:54:16;;;;;;;53.90;26.67;;;1.00;99.90;;;;;;4981464;28;20042;-67
2022/12/04 04:56:45;;;;;;;58.97;27.98;;;1.00;99.90;;;;;;4979974;28;20041;-68
2022/12/04 04:59:13;;;;;;;63.25;29.90;;;1.00;99.90;;;;;;4982124;28;20395;-67
2022/12/04 05:01:43;;;;;;;68.85;29.85;;;1.00;99.90;;;;;;4980627;28;20128;-68
2022/12/04 05:04:10;;;;;;;154.45;30.88;;;1.00;99.90;;;;;;4977422;28;20056;-68
2022/12/04 05:06:37;;;;;;;64.50;28.48;;;1.00;99.90;;;;;;4981719;28;20053;-67
2022/12/04 05:09:04;;;;;;;;;;;1.00;99.90;;;;;;4977020;28;20576;-68
2022/12/04 05:11:31;;;;;;;70.00;29.45;;;1.00;99.90;;;;;;4983511;28;19928;-68
2022/12/04 05:13:58;;;;;;;63.75;29.50;;;1.10;99.90;;;;;;4979885;28;20571;-68
2022/12/04 05:16:24;;;;;;;;;;;1.10;99.90;;;;;;4981340;28;20041;-67
2022/12/04 05:21:37;;;;;;;74.90;32.08;;;1.10;99.90;;;;;;4979633;28;20050;-67
2022/12/04 05:24:04;;;;;;;62.78;29.02;;;1.10;99.90;;;;;;4983212;28;20049;-67
2022/12/04 05:26:31;;;;;;;80.90;30.02;;;1.10;99.90;;;;;;4980376;28;20057;-67
2022/12/04 05:28:57;;;;;;;;;;;1.10;99.90;;;;;;4972085;28;20379;-68
2022/12/04 05:31:24;;;;;;;175.90;34.25;;;1.10;99.90;;;;;;4981779;28;20655;-67
2022/12/04 05:33:51;;;;;;;139.40;32.00;;;1.10;99.90;;;;;;4981365;28;20281;-68
2022/12/04 05:36:18;;;;;;;;;;;1.10;99.90;;;;;;4981108;28;20045;-69
2022/12/04 05:38:45;;;;;;;181.82;35.22;;;1.10;99.90;;;;;;4981927;28;19925;-68
2022/12/04 05:41:12;;;;;;;64.05;28.35;;;1.10;99.90;;;;;;4981884;28;20049;-68
2022/12/04 05:43:38;;;;;;;51.80;26.30;;;1.10;99.90;;;;;;4980581;28;20049;-67
2022/12/04 05:46:07;;;;;;;;;;;1.10;99.90;;;;;;4980822;28;20131;-68
2022/12/04 05:48:34;;;;;;;104.80;27.23;;;1.10;99.90;;;;;;4982026;28;19936;-68
2022/12/04 05:51:08;;;;;;;130.18;31.98;;;1.00;99.90;;;;;;4979829;28;20331;-67
2022/12/04 05:53:36;;;;;;;64.47;26.05;;;1.00;99.90;;;;;;4979149;28;20593;-68
2022/12/04 05:56:05;;;;;;;81.00;29.10;;;1.00;99.90;;;;;;4980995;28;20499;-68
2022/12/04 05:58:35;;;;;;;129.48;27.90;;;1.00;99.90;;;;;;4980088;28;20046;-68
2022/12/04 06:01:16;;;;;;;86.88;27.42;;;1.00;99.90;;;;;;4983357;28;20049;-67
2022/12/04 06:03:43;;;;;;;58.38;27.30;;;1.00;99.90;;;;;;4984077;28;20327;-68
2022/12/04 06:06:14;;;;;;;53.92;26.13;;;1.00;99.90;;;;;;4977439;28;20172;-67
2022/12/04 06:08:52;;;;;;;67.45;28.35;;;1.00;99.90;;;;;;4981569;28;20108;-68
2022/12/04 06:11:24;;;;;;;62.90;28.33;;;1.00;99.90;;;;;;4982343;28;20049;-68
2022/12/04 06:13:52;;;;;;;54.97;26.23;;;1.10;99.90;;;;;;4983512;28;20223;-67
2022/12/04 06:16:22;;;;;;;73.25;28.08;;;1.10;99.90;;;;;;4984954;28;20804;-67
2022/12/04 06:18:51;;;;;;;57.03;27.60;;;1.10;99.90;;;;;;4984361;28;20065;-67
2022/12/04 06:21:19;;;;;;;216.30;35.70;;;1.10;99.90;;;;;;4986404;28;20562;-67
2022/12/04 06:23:46;;;;;;;400.67;39.25;;;1.00;99.90;;;;;;4981558;28;20042;-68
2022/12/04 06:26:14;;;;;;;57.88;27.30;;;1.10;99.90;;;;;;4980650;28;20131;-68
2022/12/04 06:28:40;;;;;;;210.82;32.78;;;1.00;99.90;;;;;;4974517;28;20057;-67
2022/12/04 06:31:10;;;;;;;335.52;36.85;;;1.00;99.90;;;;;;4997677;28;20100;-68
2022/12/04 06:33:38;;;;;;;56.95;26.30;;;1.00;99.90;;;;;;4983211;28;20046;-67
2022/12/04 06:36:09;;;;;;;51.53;25.90;;;1.00;99.90;;;;;;4987611;28;20430;-68
2022/12/04 06:38:36;;;;;;;95.80;27.60;;;1.00;99.90;;;;;;4982730;28;20033;-68
2022/12/04 06:41:05;;;;;;;76.85;28.33;;;1.00;99.90;;;;;;4983559;28;20054;-68
2022/12/04 06:43:32;;;;;;;57.22;27.05;;;1.00;99.90;;;;;;4980800;28;20451;-68
2022/12/04 06:46:05;;;;;;;85.50;28.35;;;1.00;99.90;;;;;;4987528;28;20448;-68
2022/12/04 06:48:33;;;;;;;75.93;27.55;;;1.00;99.90;;;;;;4985763;28;20058;-68
2022/12/04 06:51:02;;;;;;;69.25;29.67;;;1.00;99.90;;;;;;4982083;28;20123;-67
2022/12/04 06:53:29;;;;;;;76.85;30.00;;;1.10;99.90;;;;;;4981484;28;20228;-67
2022/12/04 06:55:58;;;;;;;59.63;28.00;;;1.10;99.90;;;;;;4983518;28;20045;-68
2022/12/04 06:58:26;;;;;;;53.88;25.98;;;1.10;99.90;;;;;;4983922;28;20046;-68
2022/12/04 07:00:53;;;;;;;53.03;26.77;;;1.10;99.90;;;;;;4983811;28;20867;-67
2022/12/04 07:03:21;;;;;;;60.38;24.42;;;1.10;99.90;;;;;;4982950;28;20276;-68
2022/12/04 07:05:48;;;;;;;49.83;24.45;;;1.10;99.90;;;;;;4980819;28;20042;-67
2022/12/04 07:08:16;;;;;;;51.17;26.63;;;1.10;99.90;;;;;;4983801;28;20056;-67
2022/12/04 07:10:43;;;;;;;52.58;25.25;;;1.10;99.90;;;;;;4983777;28;20042;-68
2022/12/04 07:13:10;;;;;;;53.88;26.98;;;1.10;99.90;;;;;;4990857;28;20152;-68
2022/12/04 07:15:37;;;;;;;107.68;29.75;;;1.10;99.90;;;;;;4984304;28;20679;-68
2022/12/04 07:18:04;;;;;;;50.47;23.63;;;1.10;99.90;;;;;;4983921;28;20038;-68
2022/12/04 07:20:31;;;;;;;57.30;26.00;;;1.10;99.90;;;;;;4985152;28;20631;-68
2022/12/04 07:22:58;;;;;;;53.13;25.38;;;1.10;99.90;;;;;;4982650;28;20045;-68
2022/12/04 07:25:32;;;;;;;54.47;25.25;;;1.10;99.90;;;;;;4984194;28;20163;-68
2022/12/04 07:27:59;;;;;;;;;;;1.10;99.90;;;;;;4982185;28;20187;-68
2022/12/04 07:30:26;;;;;;;52.20;24.38;;;1.10;99.90;;;;;;4982980;28;19981;-68
2022/12/04 07:32:53;;;;;;;;;;;1.10;99.90;;;;;;4985527;28;20409;-68
2022/12/04 07:35:19;;;;;;;41.40;20.30;;;1.10;99.90;;;;;;4963321;28;19925;-68
2022/12/04 07:37:46;;;;;;;;;;;1.10;99.90;;;;;;4989743;28;20927;-68
2022/12/04 07:40:13;;;;;;;47.53;23.60;;;1.20;99.90;;;;;;4980851;28;20237;-70
2022/12/04 07:42:40;;;;;;;45.60;22.65;;;1.10;99.90;;;;;;4990622;28;20049;-69
2022/12/04 07:45:07;;;;;;;;;;;1.10;99.90;;;;;;4987285;28;20558;-69
2022/12/04 07:47:35;;;;;;;77.97;24.60;;;1.20;99.90;;;;;;4984461;28;20222;-69
2022/12/04 07:50:04;;;;;;;61.45;27.70;;;1.20;99.90;;;;;;4986740;28;20502;-69
2022/12/04 07:52:38;;;;;;;71.20;25.83;;;1.20;99.90;;;;;;4985266;28;20108;-68
2022/12/04 07:55:06;;;;;;;53.55;25.52;;;1.20;99.90;;;;;;4981998;28;20095;-70
2022/12/04 07:57:33;;;;;;;49.55;23.55;;;1.20;99.90;;;;;;4982849;28;20591;-68
2022/12/04 08:00:00;;;;;;;58.58;27.30;;;1.20;99.90;;;;;;4983149;28;20507;-69
2022/12/04 08:02:26;;;;;;;;;;;1.20;99.90;;;;;;4983031;28;20045;-69
2022/12/04 08:04:53;;;;;;;96.93;27.48;;;1.20;99.90;;;;;;4983208;28;20299;-69
2022/12/04 08:07:20;;;;;;;46.13;21.63;;;1.20;99.90;;;;;;4989316;28;20052;-70
2022/12/04 08:09:46;;;;;;;;;;;1.20;99.90;;;;;;4984448;28;20319;-69
2022/12/04 08:12:13;;;;;;;49.50;22.15;;;1.20;99.90;;;;;;4981202;28;20236;-69
2022/12/04 08:14:40;;;;;;;;;;;1.20;99.90;;;;;;4982255;28;20077;-69
2022/12/04 08:17:07;;;;;;;53.17;24.52;;;1.20;99.90;;;;;;4985518;28;19960;-69
2022/12/04 08:19:34;;;;;;;59.28;24.17;;;1.20;99.90;;;;;;4982032;28;20513;-68
2022/12/04 08:22:00;;;;;;;;;;;1.20;99.90;;;;;;4986518;28;20056;-68
2022/12/04 08:24:27;;;;;;;51.22;22.40;;;1.30;99.90;;;;;;4981420;28;19933;-69
2022/12/04 08:26:54;;;;;;;61.08;25.35;;;1.20;99.90;;;;;;4986485;28;20152;-69
2022/12/04 08:29:20;;;;;;;;;;;1.30;99.90;;;;;;4984545;28;20465;-69
2022/12/04 08:31:47;;;;;;;45.63;21.75;;;1.20;99.90;;;;;;4984913;28;20002;-69
2022/12/04 08:34:14;;;;;;;;;;;1.20;99.90;;;;;;4980945;28;20532;-69
2022/12/04 08:36:41;;;;;;;172.30;29.95;;;1.20;99.90;;;;;;4985096;28;20358;-69
2022/12/04 08:39:08;;;;;;;;;;;1.20;99.90;;;;;;4983500;28;20052;-69
2022/12/04 08:41:35;;;;;;;54.55;24.20;;;1.20;99.90;;;;;;4982503;28;20040;-69
2022/12/04 08:44:02;;;;;;;51.33;24.45;;;1.20;99.90;;;;;;4983683;28;20490;-69
2022/12/04 08:46:29;;;;;;;64.15;23.25;;;1.20;99.90;;;;;;4982864;28;20299;-69
2022/12/04 08:48:56;;;;;;;62.63;25.70;;;1.20;99.90;;;;;;4982748;28;20751;-69
2022/12/04 08:51:26;;;;;;;47.92;22.83;;;1.20;99.90;;;;;;4981023;28;20203;-68
2022/12/04 08:53:54;;;;;;;331.85;34.70;;;1.20;99.90;;;;;;4980816;28;20137;-68
2022/12/04 08:56:22;;;;;;;48.88;25.35;;;1.20;99.90;;;;;;4984287;28;20069;-68
2022/12/04 08:58:49;;;;;;;56.72;24.27;;;1.20;99.90;;;;;;4987906;28;20588;-68
2022/12/04 09:01:16;;;;;;;48.38;23.50;;;1.20;99.90;;;;;;4980787;28;20053;-69
2022/12/04 09:03:43;;;;;;;52.60;23.65;;;1.20;99.90;;;;;;4983096;28;20054;-68
2022/12/04 09:06:13;;;;;;;74.60;26.80;;;1.20;99.90;;;;;;4978040;28;20042;-69
2022/12/04 09:08:41;;;;;;;44.70;22.88;;;1.20;99.90;;;;;;4981183;28;20046;-69
2022/12/04 09:11:17;;;;;;;49.55;23.30;;;1.20;99.90;;;;;;4983875;28;20099;-68
2022/12/04 09:13:44;;;;;;;58.23;23.37;;;1.20;99.90;;;;;;4995995;28;20861;-68
2022/12/04 09:16:15;;;;;;;45.83;24.02;;;1.20;99.90;;;;;;4982073;28;20220;-68
2022/12/04 09:18:42;;;;;;;42.75;22.30;;;1.20;99.90;;;;;;4988231;28;20419;-69
2022/12/04 09:21:11;;;;;;;42.55;20.63;;;1.20;99.90;;;;;;4983030;28;20046;-69
2022/12/04 09:23:38;;;;;;;53.05;25.13;;;1.20;99.90;;;;;;4984333;28;20276;-70
2022/12/04 09:26:17;;;;;;;77.60;29.17;;;1.20;99.90;;;;;;4981300;28;20482;-69
2022/12/04 09:28:45;;;;;;;112.45;23.10;;;1.20;99.90;;;;;;4989808;28;20222;-69
2022/12/04 09:31:12;;;;;;;42.45;21.45;;;1.20;99.90;;;;;;4982600;28;20233;-69
2022/12/04 09:33:39;;;;;;;39.88;22.48;;;1.20;99.90;;;;;;4981630;28;20038;-69
2022/12/04 09:36:06;;;;;;;39.65;20.63;;;1.20;99.90;;;;;;4982963;28;20141;-69
2022/12/04 09:38:32;;;;;;;73.28;19.52;;;1.20;99.90;;;;;;4986138;28;20080;-70
2022/12/04 09:41:18;;;;;;;;;;;1.20;99.90;;;;;;4984536;28;20629;-69
2022/12/04 09:44:23;;;;;;;30.73;17.02;;;1.20;99.90;;;;;;4984845;28;19928;-69
2022/12/04 09:47:21;;;;;;;70.68;25.98;;;1.20;99.90;;;;;;4982877;28;20561;-70
2022/12/04 09:49:50;;;;;;;;;;;1.30;99.90;;;;;;4979657;28;20049;-69
2022/12/04 09:52:42;;;;;;;62.67;20.40;;;1.30;99.90;;;;;;4983482;28;20387;-69
2022/12/04 09:55:22;;;;;;;40.65;21.90;;;1.20;99.90;;;;;;4984692;28;20274;-69
2022/12/04 09:57:52;;;;;;;42.78;23.35;;;1.30;99.90;;;;;;4983430;28;20053;-69
2022/12/04 10:00:29;;;;;;;44.22;25.75;;;1.20;99.90;;;;;;4986629;28;20807;-69
2022/12/04 10:03:04;;;;;;;84.50;28.20;;;1.30;99.90;;;;;;4999619;28;20381;-70
2022/12/04 10:05:49;;;;;;;39.67;20.27;;;1.20;99.90;;;;;;4983621;28;20152;-69
2022/12/04 10:08:29;;;;;;;53.60;22.25;;;1.30;99.90;;;;;;4983014;28;20057;-69
2022/12/04 10:11:11;;;;;;;42.72;20.30;;;1.30;99.90;;;;;;4989777;28;20582;-69
2022/12/04 10:14:07;;;;;;;230.15;28.23;;;1.30;99.90;;;;;;4984543;28;20563;-69
2022/12/04 10:16:52;;;;;;;269.90;29.30;;;1.30;99.90;;;;;;4984348;28;20041;-69
2022/12/04 10:19:34;;;;;;;47.03;23.27;;;1.30;99.90;;;;;;4983583;28;20621;-70
2022/12/04 10:22:03;;;;;;;42.78;21.70;;;1.30;99.90;;;;;;4984450;28;20057;-70
2022/12/04 10:24:42;;;;;;;62.47;23.23;;;1.40;99.90;;;;;;4985483;28;20331;-70
2022/12/04 10:27:24;;;;;;;48.95;23.38;;;1.40;99.90;;;;;;4983303;28;20053;-68
2022/12/04 10:30:03;;;;;;;59.63;23.00;;;1.40;99.90;;;;;;4986624;28;20048;-69
2022/12/04 10:32:32;;;;;;;60.55;22.58;;;1.40;99.90;;;;;;4982985;28;20041;-69
2022/12/04 10:35:17;;;;;;;109.28;27.60;;;1.50;99.90;;;;;;4988040;28;20065;-69
2022/12/04 10:37:46;;;;;;;65.07;23.92;;;1.50;99.90;;;;;;4985413;28;20041;-69
2022/12/04 10:40:19;;;;;;;144.77;26.85;;;1.50;99.90;;;;;;4984103;28;20049;-69
2022/12/04 10:42:56;;;;;;;35.75;20.77;;;1.60;99.90;;;;;;4985120;28;20236;-69
2022/12/04 10:45:23;;;;;;;136.05;28.75;;;1.50;99.90;;;;;;4982251;28;20099;-69
2022/12/04 10:47:52;;;;;;;56.72;24.38;;;1.60;99.90;;;;;;4983816;28;20415;-69
2022/12/04 10:50:21;;;;;;;44.17;22.10;;;1.60;99.90;;;;;;4985613;28;20160;-69
2022/12/04 10:52:48;;;;;;;47.42;24.00;;;1.60;99.90;;;;;;4984705;28;20245;-69
2022/12/04 10:55:30;;;;;;;54.38;21.95;;;1.60;99.90;;;;;;4986584;28;20499;-69
2022/12/04 10:57:57;;;;;;;37.83;21.10;;;1.60;99.90;;;;;;4981640;28;20197;-69
2022/12/04 11:00:28;;;;;;;;;;;1.60;99.90;;;;;;4986480;28;20050;-69
2022/12/04 11:02:59;;;;;;;139.90;59.40;;;1.60;99.90;;;;;;4986301;28;19925;-69
2022/12/04 11:05:37;;;;;;;72.45;35.38;;;1.60;99.90;;;;;;4983541;28;20630;-69
2022/12/04 11:08:06;;;;;;;59.80;27.98;;;1.60;99.90;;;;;;4982409;28;20049;-69
2022/12/04 11:10:39;;;;;;;59.92;23.80;;;1.60;99.90;;;;;;4978962;28;20573;-69
2022/12/04 11:13:17;;;;;;;70.13;27.63;;;1.70;99.90;;;;;;4991315;28;20057;-69
2022/12/04 11:15:46;;;;;;;55.00;24.75;;;2.00;99.90;;;;;;4985592;28;20466;-69
2022/12/04 11:18:22;;;;;;;52.58;23.90;;;2.00;99.90;;;;;;4982664;28;20045;-69
2022/12/04 11:21:17;;;;;;;49.65;23.70;;;2.00;99.90;;;;;;4986664;28;20438;-68
2022/12/04 11:23:47;;;;;;;56.58;24.05;;;2.00;99.90;;;;;;4981119;28;20112;-70
2022/12/04 11:26:17;;;;;;;48.25;22.00;;;1.90;99.90;;;;;;4984792;28;20187;-69
2022/12/04 11:28:51;;;;;;;42.85;21.63;;;1.90;99.90;;;;;;4985173;28;20127;-70
2022/12/04 11:31:20;;;;;;;48.03;22.33;;;1.90;99.90;;;;;;4984207;28;20053;-69
2022/12/04 11:33:52;;;;;;;42.17;19.73;;;1.90;99.90;;;;;;4984898;28;20077;-69
2022/12/04 11:36:39;;;;;;;43.22;20.85;;;1.80;99.90;;;;;;4983422;28;20049;-68
2022/12/04 11:39:12;;;;;;;44.97;21.00;;;1.80;99.90;;;;;;4997158;28;20072;-68
2022/12/04 11:41:39;;;;;;;43.22;20.42;;;1.80;99.90;;;;;;4981543;28;20046;-70
2022/12/04 11:44:20;;;;;;;44.20;21.35;;;1.80;99.90;;;;;;4985027;28;20055;-70
2022/12/04 11:46:53;;;;;;;47.20;21.27;;;1.80;99.90;;;;;;4985506;28;20049;-70
2022/12/04 11:49:25;;;;;;;45.90;22.63;;;1.80;99.90;;;;;;4985259;28;20752;-70
2022/12/04 11:52:15;;;;;;;39.28;19.52;;;1.80;99.90;;;;;;4984631;28;20334;-70
2022/12/04 11:55:01;;;;;;;39.65;20.75;;;1.80;99.90;;;;;;4983037;28;20038;-70
2022/12/04 11:57:48;;;;;;;44.38;22.20;;;1.80;99.90;;;;;;4998284;28;20049;-70
2022/12/04 12:00:17;;;;;;;49.42;22.58;;;1.80;99.90;;;;;;4984467;28;20042;-71
2022/12/04 12:02:57;;;;;;;48.88;23.27;;;1.80;99.90;;;;;;4983528;28;20060;-70
2022/12/04 12:05:35;;;;;;;42.83;21.40;;;1.80;99.90;;;;;;4984848;28;20053;-71
2022/12/04 12:08:20;;;;;;;41.15;21.33;;;1.80;99.90;;;;;;4983716;28;20050;-70
2022/12/04 12:11:06;;;;;;;42.05;20.23;;;1.80;99.90;;;;;;4984395;28;20045;-70
2022/12/04 12:14:02;;;;;;;45.00;19.88;;;1.80;99.90;;;;;;4983027;28;20071;-71
2022/12/04 12:16:32;;;;;;;43.25;21.08;;;1.90;99.90;;;;;;4985002;28;20041;-70
2022/12/04 12:19:10;;;;;;;40.83;19.10;;;1.90;99.90;;;;;;4983267;28;20052;-69
2022/12/04 12:21:57;;;;;;;38.78;20.08;;;2.00;99.90;;;;;;4984438;28;20451;-70
2022/12/04 12:25:09;;;;;;;35.90;18.20;;;2.00;99.90;;;;;;4981802;28;20343;-70
2022/12/04 12:28:03;;;;;;;41.97;20.77;;;2.00;99.90;;;;;;4995626;28;20136;-70
2022/12/04 12:30:43;;;;;;;41.85;19.20;;;2.00;99.90;;;;;;4990150;28;20101;-70
2022/12/04 12:33:18;;;;;;;40.67;20.13;;;2.00;99.90;;;;;;4983049;28;20554;-71
2022/12/04 12:36:03;;;;;;;36.33;18.17;;;2.00;99.90;;;;;;4982451;28;20115;-70
2022/12/04 12:38:33;;;;;;;44.40;19.50;;;2.00;99.90;;;;;;4982796;28;20048;-70
2022/12/04 12:41:14;;;;;;;47.55;22.27;;;2.00;99.90;;;;;;4980766;28;20041;-70
2022/12/04 12:43:47;;;;;;;48.70;21.30;;;2.00;99.90;;;;;;4979537;28;20049;-70
2022/12/04 12:46:36;;;;;;;42.33;21.58;;;2.00;99.90;;;;;;4985364;28;20531;-70
2022/12/04 12:49:15;;;;;;;37.78;20.77;;;2.00;99.90;;;;;;4966249;28;20053;-71
2022/12/04 12:52:01;;;;;;;44.80;21.73;;;2.00;99.90;;;;;;4983392;28;20046;-70
2022/12/04 12:54:50;;;;;;;49.95;23.92;;;2.00;99.90;;;;;;4980984;28;20042;-70
2022/12/04 12:57:28;;;;;;;51.30;23.80;;;2.00;99.90;;;;;;4980869;28;20050;-70
2022/12/04 13:00:06;;;;;;;52.42;23.63;;;2.10;99.90;;;;;;4984454;28;20053;-70
2022/12/04 13:02:48;;;;;;;56.88;24.73;;;2.10;99.90;;;;;;4981641;28;20064;-71
2022/12/04 13:05:20;;;;;;;53.78;24.63;;;2.00;99.90;;;;;;4984797;28;20053;-70
2022/12/04 13:08:00;;;;;;;49.20;23.95;;;2.00;99.90;;;;;;4982611;28;20483;-69
2022/12/04 13:10:36;;;;;;;52.75;24.48;;;2.00;99.90;;;;;;4978717;28;20045;-69
2022/12/04 13:13:09;;;;;;;56.95;25.02;;;2.00;99.90;;;;;;4978716;28;20057;-70
2022/12/04 13:15:52;;;;;;;51.83;23.77;;;2.00;99.90;;;;;;4977128;28;20073;-70
2022/12/04 13:18:28;;;;;;;50.05;22.98;;;2.00;99.90;;;;;;4983875;28;20049;-70
2022/12/04 13:21:02;;;;;;;62.50;26.42;;;2.00;99.90;;;;;;4981669;28;20052;-70
2022/12/04 13:23:35;;;;;;;71.60;27.33;;;2.00;99.90;;;;;;4980193;28;20041;-70
2022/12/04 13:26:40;;;;;;;50.53;25.13;;;1.90;99.90;;;;;;4985964;28;20049;-70
2022/12/04 13:29:23;;;;;;;41.58;22.85;;;2.00;99.90;;;;;;4981147;28;20049;-70